createdAt,value
2019-04-07T00:00:01.935Z,99653.38
2019-04-07T00:02:32.435Z,99655.09
2019-04-07T00:05:11.123Z,99652.71
2019-04-07T00:07:38.016Z,99649.06
2019-04-07T00:10:11.176Z,99660.09
2019-04-07T00:12:55.748Z,99656.17
2019-04-07T00:15:27.766Z,99657.11
2019-04-07T00:18:01.372Z,99655.19
2019-04-07T00:20:32.119Z,99654.84
2019-04-07T00:23:03.332Z,99650.52
2019-04-07T00:25:33.707Z,99653.70
2019-04-07T00:28:04.095Z,99650.95
2019-04-07T00:30:37.495Z,99653.03
2019-04-07T00:33:23.107Z,99653.86
2019-04-07T00:35:55.915Z,99646.37
2019-04-07T00:38:28.356Z,99646.37
2019-04-07T00:41:03.095Z,99647.70
2019-04-07T00:43:34.367Z,99646.12
2019-04-07T00:46:05.643Z,99646.48
2019-04-07T00:48:39.869Z,99645.50
2019-04-07T00:51:13.060Z,99650.47
2019-04-07T00:53:45.707Z,99643.80
2019-04-07T00:56:24.702Z,99645.73
2019-04-07T00:59:09.976Z,99649.41
2019-04-07T01:01:47.229Z,99649.17
2019-04-07T01:04:19.887Z,99642.97
2019-04-07T01:06:51.731Z,99651.05
2019-04-07T01:09:25.307Z,99642.50
2019-04-07T01:11:59.539Z,99643.05
2019-04-07T01:14:30.558Z,99643.13
2019-04-07T01:17:03.682Z,99649.25
2019-04-07T01:19:36.564Z,99645.88
2019-04-07T01:22:41.060Z,99648.39
2019-04-07T01:28:31.685Z,99646.79
2019-04-07T01:31:03.454Z,99647.19
2019-04-07T01:34:01.198Z,99644.45
2019-04-07T01:36:38.234Z,99644.75
2019-04-07T01:39:22.996Z,99654.68
2019-04-07T01:42:02.619Z,99649.27
2019-04-07T01:44:44.644Z,99649.11
2019-04-07T01:47:30.524Z,99647.23
2019-04-07T01:50:19.841Z,99650.40
2019-04-07T01:53:03.496Z,99643.72
2019-04-07T01:55:58.927Z,99642.23
2019-04-07T01:58:52.430Z,99643.56
2019-04-07T02:01:40.085Z,99646.59
2019-04-07T02:04:32.468Z,99633.58
2019-04-07T02:07:24.614Z,99639.42
2019-04-07T02:10:25.268Z,99643.37
2019-04-07T02:13:18.768Z,99639.89
2019-04-07T02:16:11.444Z,99631.45
2019-04-07T02:19:21.896Z,99637.50
2019-04-07T02:22:17.366Z,99635.31
2019-04-07T02:25:21.971Z,99640.77
2019-04-07T02:28:16.480Z,99639.58
2019-04-07T02:31:19.696Z,99648.02
2019-04-07T02:34:00.126Z,99648.82
2019-04-07T02:36:53.932Z,99646.24
2019-04-07T02:40:00.247Z,99646.16
2019-04-07T02:42:43.748Z,99647.31
2019-04-07T02:45:36.811Z,99644.66
2019-04-07T02:48:29.336Z,99640.31
2019-04-07T02:51:11.241Z,99645.56
2019-04-07T02:53:50.963Z,99643.87
2019-04-07T02:56:46.193Z,99638.17
2019-04-07T02:59:29.341Z,99645.28
2019-04-07T03:02:34.679Z,99646.84
2019-04-07T03:05:17.252Z,99641.64
2019-04-07T03:08:09.155Z,99645.83
2019-04-07T03:11:16.054Z,99636.64
2019-04-07T03:13:54.955Z,99645.03
2019-04-07T03:16:52.815Z,99645.56
2019-04-07T03:19:30.576Z,99643.53
2019-04-07T03:22:23.733Z,99636.06
2019-04-07T03:25:16.184Z,99645.17
2019-04-07T03:28:02.183Z,99644.58
2019-04-07T03:30:42.362Z,99640.97
2019-04-07T03:33:28.393Z,99646.47
2019-04-07T03:36:18.593Z,99650.45
2019-04-07T03:38:57.895Z,99648.02
2019-04-07T03:41:39.985Z,99646.38
2019-04-07T03:44:29.144Z,99642.83
2019-04-07T03:47:17.116Z,99652.22
2019-04-07T03:50:07.188Z,99652.74
2019-04-07T03:52:56.579Z,99655.60
2019-04-07T03:55:47.239Z,99660.61
2019-04-07T03:58:25.812Z,99655.60
2019-04-07T04:01:35.389Z,99655.94
2019-04-07T04:04:41.429Z,99663.27
2019-04-07T04:07:34.927Z,99658.89
2019-04-07T04:10:06.974Z,99661.22
2019-04-07T04:13:02.992Z,99661.14
2019-04-07T04:15:46.907Z,99658.90
2019-04-07T04:18:16.780Z,99657.56
2019-04-07T04:20:46.557Z,99661.73
2019-04-07T04:23:17.821Z,99664.61
2019-04-07T04:25:47.628Z,99671.55
2019-04-07T04:28:17.084Z,99665.22
2019-04-07T04:30:46.650Z,99669.52
2019-04-07T04:33:16.126Z,99675.24
2019-04-07T04:35:46.644Z,99666.75
2019-04-07T04:38:16.581Z,99678.49
2019-04-07T04:40:46.009Z,99681.34
2019-04-07T04:43:15.696Z,99674.81
2019-04-07T04:45:46.044Z,99683.49
2019-04-07T04:48:15.643Z,99684.83
2019-04-07T04:50:45.787Z,99685.44
2019-04-07T04:53:15.361Z,99687.48
2019-04-07T04:55:44.696Z,99687.87
2019-04-07T04:58:14.060Z,99686.55
2019-04-07T05:00:43.458Z,99685.11
2019-04-07T05:03:12.852Z,99695.05
2019-04-07T05:05:42.299Z,99698.92
2019-04-07T05:08:12.770Z,99693.42
2019-04-07T05:10:42.741Z,99697.01
2019-04-07T05:13:12.145Z,99697.30
2019-04-07T05:15:42.100Z,99701.00
2019-04-07T05:18:12.032Z,99696.29
2019-04-07T05:20:42.045Z,99704.27
2019-04-07T05:23:12.157Z,99703.22
2019-04-07T05:25:41.592Z,99704.66
2019-04-07T05:28:11.315Z,99706.09
2019-04-07T05:30:41.452Z,99709.98
2019-04-07T05:33:11.102Z,99718.17
2019-04-07T05:35:40.623Z,99715.40
2019-04-07T05:38:11.312Z,99724.72
2019-04-07T05:40:41.011Z,99723.06
2019-04-07T05:43:10.715Z,99732.17
2019-04-07T05:45:41.056Z,99734.55
2019-04-07T05:48:10.755Z,99728.30
2019-04-07T05:50:40.709Z,99729.52
2019-04-07T05:53:14.600Z,99728.99
2019-04-07T05:55:42.617Z,99732.05
2019-04-07T05:58:14.807Z,99734.67
2019-04-07T06:00:45.732Z,99739.23
2019-04-07T06:03:15.389Z,99736.53
2019-04-07T06:05:48.295Z,99743.55
2019-04-07T06:08:25.731Z,99743.09
2019-04-07T06:10:48.811Z,99743.23
2019-04-07T06:13:18.953Z,99753.09
2019-04-07T06:15:51.377Z,99745.34
2019-04-07T06:18:21.220Z,99746.88
2019-04-07T06:20:52.011Z,99745.14
2019-04-07T06:23:23.313Z,99745.48
2019-04-07T06:25:55.586Z,99749.69
2019-04-07T06:28:24.952Z,99750.69
2019-04-07T06:30:54.381Z,99750.66
2019-04-07T06:33:23.900Z,99757.01
2019-04-07T06:35:55.089Z,99752.64
2019-04-07T06:38:33.120Z,99755.48
2019-04-07T06:41:03.103Z,99749.97
2019-04-07T06:43:35.145Z,99749.75
2019-04-07T06:46:27.676Z,99754.63
2019-04-07T06:49:15.998Z,99757.45
2019-04-07T06:52:07.361Z,99758.10
2019-04-07T06:54:57.609Z,99758.42
2019-04-07T06:57:50.696Z,99761.67
2019-04-07T07:00:38.888Z,99761.72
2019-04-07T07:03:33.523Z,99765.80
2019-04-07T07:06:20.552Z,99766.09
2019-04-07T07:09:00.857Z,99767.70
2019-04-07T07:12:01.639Z,99773.22
2019-04-07T07:14:55.102Z,99770.26
2019-04-07T07:17:38.516Z,99778.43
2019-04-07T07:20:17.674Z,99765.64
2019-04-07T07:22:51.171Z,99775.66
2019-04-07T07:25:20.701Z,99776.91
2019-04-07T07:27:51.152Z,99775.78
2019-04-07T07:30:21.374Z,99773.61
2019-04-07T07:32:52.918Z,99779.18
2019-04-07T07:35:22.412Z,99776.49
2019-04-07T07:37:58.130Z,99786.00
2019-04-07T07:40:26.481Z,99783.50
2019-04-07T07:42:58.102Z,99786.28
2019-04-07T07:45:27.420Z,99790.78
2019-04-07T07:47:57.852Z,99792.52
2019-04-07T07:50:28.350Z,99785.92
2019-04-07T07:52:58.291Z,99787.26
2019-04-07T07:55:33.726Z,99785.59
2019-04-07T07:58:01.039Z,99794.26
2019-04-07T08:00:30.968Z,99795.63
2019-04-07T08:03:00.575Z,99800.78
2019-04-07T08:05:33.385Z,99802.48
2019-04-07T08:08:01.748Z,99801.23
2019-04-07T08:10:31.288Z,99803.45
2019-04-07T08:13:05.084Z,99801.80
2019-04-07T08:15:33.381Z,99805.30
2019-04-07T08:18:07.180Z,99811.14
2019-04-07T08:20:42.933Z,99810.92
2019-04-07T08:23:13.339Z,99812.27
2019-04-07T08:25:43.740Z,99810.53
2019-04-07T08:28:13.574Z,99816.88
2019-04-07T08:30:47.200Z,99818.08
2019-04-07T08:33:14.723Z,99819.14
2019-04-07T08:35:45.909Z,99815.19
2019-04-07T08:38:18.637Z,99822.77
2019-04-07T08:40:46.917Z,99821.19
2019-04-07T08:43:21.423Z,99819.31
2019-04-07T08:45:50.325Z,99814.88
2019-04-07T08:48:21.529Z,99817.68
2019-04-07T08:50:59.835Z,99816.72
2019-04-07T08:53:29.503Z,99813.49
2019-04-07T08:55:59.947Z,99812.82
2019-04-07T08:58:47.819Z,99817.23
2019-04-07T09:01:20.314Z,99811.05
2019-04-07T09:03:50.750Z,99820.54
2019-04-07T09:15:04.007Z,99818.14
2019-04-07T10:43:31.907Z,99807.14
2019-04-07T10:58:50.281Z,99796.30
2019-04-07T11:01:49.127Z,99789.66
2019-04-07T11:04:47.369Z,99788.34
2019-04-07T11:11:31.462Z,99792.92
2019-04-07T11:17:54.468Z,99790.39
2019-04-07T11:20:55.772Z,99791.89
2019-04-07T11:27:37.642Z,99787.70
2019-04-07T11:30:55.452Z,99790.63
2019-04-07T11:34:22.681Z,99793.67
2019-04-07T11:37:30.880Z,99800.98
2019-04-07T11:40:42.046Z,99795.83
2019-04-07T11:43:58.643Z,99786.47
2019-04-07T11:50:02.400Z,99790.69
2019-04-07T12:01:12.811Z,99794.13
2019-04-07T12:04:37.939Z,99793.33
2019-04-07T12:07:29.173Z,99793.04
2019-04-07T12:10:33.208Z,99792.91
2019-04-07T12:13:16.534Z,99788.48
2019-04-07T12:16:27.723Z,99790.41
2019-04-07T12:19:39.749Z,99791.16
2019-04-07T12:25:48.583Z,99790.48
2019-04-07T12:29:05.896Z,99794.67
2019-04-07T12:31:57.758Z,99787.59
2019-04-07T12:34:53.539Z,99784.50
2019-04-07T12:37:43.742Z,99779.64
2019-04-07T12:49:56.282Z,99773.05
2019-04-07T12:53:32.133Z,99763.02
2019-04-07T12:59:41.156Z,99756.66
2019-04-07T13:02:53.236Z,99759.59
2019-04-07T13:09:37.998Z,99760.30
2019-04-07T13:41:59.042Z,99755.67
2019-04-07T13:45:19.212Z,99756.13
2019-04-07T13:48:18.392Z,99755.55
2019-04-07T14:16:04.033Z,99744.95
2019-04-07T16:48:58.467Z,99784.69
2019-04-07T16:51:58.363Z,99782.76
2019-04-07T16:54:52.731Z,99785.70
2019-04-07T16:57:54.842Z,99794.79
2019-04-07T17:04:00.864Z,99807.20
2019-04-07T17:06:37.738Z,99807.09
2019-04-07T17:09:25.038Z,99802.39
2019-04-07T17:12:00.370Z,99804.98
2019-04-07T17:14:35.980Z,99803.34
2019-04-07T17:17:06.734Z,99802.48
2019-04-07T17:19:37.288Z,99803.97
2019-04-07T17:22:11.875Z,99811.84
2019-04-07T17:24:42.693Z,99812.67
2019-04-07T17:27:13.093Z,99813.51
2019-04-07T17:29:44.448Z,99810.82
2019-04-07T17:32:15.143Z,99807.84
2019-04-07T17:34:45.352Z,99816.23
2019-04-07T17:37:15.163Z,99811.35
2019-04-07T17:40:00.221Z,99820.31
2019-04-07T17:42:30.333Z,99821.09
2019-04-07T17:45:21.308Z,99819.73
2019-04-07T17:48:09.836Z,99827.26
2019-04-07T17:50:48.710Z,99827.40
2019-04-07T17:53:28.516Z,99836.38
2019-04-07T17:56:29.705Z,99835.71
2019-04-07T17:59:31.073Z,99843.88
2019-04-07T18:02:11.911Z,99844.73
2019-04-07T18:05:10.618Z,99850.25
2019-04-07T18:08:02.941Z,99848.49
2019-04-07T18:10:57.985Z,99850.19
2019-04-07T18:13:49.957Z,99856.52
2019-04-07T18:16:44.747Z,99861.73
2019-04-07T18:19:43.126Z,99861.02
2019-04-07T18:22:24.830Z,99863.12
2019-04-07T18:25:17.320Z,99867.39
2019-04-07T18:28:06.843Z,99861.38
2019-04-07T18:31:04.394Z,99875.30
2019-04-07T18:33:52.602Z,99873.13
2019-04-07T18:36:47.118Z,99877.59
2019-04-07T18:39:41.914Z,99883.34
2019-04-07T18:42:36.642Z,99881.48
2019-04-07T18:45:19.353Z,99883.04
2019-04-07T18:48:11.342Z,99888.91
2019-04-07T18:51:03.116Z,99895.19
2019-04-07T18:53:48.912Z,99899.61
2019-04-07T18:56:38.615Z,99900.56
2019-04-07T18:59:21.531Z,99902.94
2019-04-07T19:02:19.486Z,99907.19
2019-04-07T19:05:00.806Z,99910.95
2019-04-07T19:07:37.945Z,99913.33
2019-04-07T19:10:39.062Z,99912.20
2019-04-07T19:13:36.932Z,99915.63
2019-04-07T19:16:28.478Z,99924.19
2019-04-07T19:19:15.222Z,99925.18
2019-04-07T19:22:10.948Z,99928.59
2019-04-07T19:25:04.223Z,99928.66
2019-04-07T19:27:48.339Z,99931.14
2019-04-07T19:30:45.353Z,99930.34
2019-04-07T19:33:35.619Z,99937.14
2019-04-07T19:36:23.999Z,99944.31
2019-04-07T19:39:09.050Z,99948.23
2019-04-07T19:41:56.380Z,99951.07
2019-04-07T19:44:53.083Z,99944.75
2019-04-07T19:47:39.756Z,99950.68
2019-04-07T19:50:28.570Z,99945.58
2019-04-07T19:53:20.400Z,99952.51
2019-04-07T19:56:25.256Z,99949.22
2019-04-07T19:59:12.851Z,99951.02
2019-04-07T20:02:10.464Z,99942.36
2019-04-07T20:04:55.078Z,99948.01
2019-04-07T20:07:52.739Z,99946.10
2019-04-07T20:10:30.460Z,99946.18
2019-04-07T20:13:22.063Z,99946.88
2019-04-07T20:16:00.476Z,99945.19
2019-04-07T20:18:58.591Z,99949.04
2019-04-07T20:21:49.379Z,99951.48
2019-04-07T20:24:36.689Z,99954.60
2019-04-07T20:27:13.640Z,99959.61
2019-04-07T20:30:02.976Z,99956.63
2019-04-07T20:32:40.167Z,99961.98
2019-04-07T20:35:28.587Z,99958.58
2019-04-07T20:38:19.213Z,99956.72
2019-04-07T20:41:13.613Z,99959.50
2019-04-07T20:43:51.287Z,99966.05
2019-04-07T20:46:47.444Z,99965.83
2019-04-07T20:49:35.718Z,99963.21
2019-04-07T20:52:34.222Z,99959.36
2019-04-07T20:55:15.592Z,99963.81
2019-04-07T20:58:15.198Z,99965.46
2019-04-07T21:01:00.701Z,99957.00
2019-04-07T21:03:47.652Z,99964.86
2019-04-07T21:06:38.058Z,99958.55
2019-04-07T21:09:33.345Z,99961.30
2019-04-07T21:12:08.157Z,99964.56
2019-04-07T21:15:16.919Z,99963.81
2019-04-07T21:17:39.654Z,99969.47
2019-04-07T21:20:20.084Z,99970.95
2019-04-07T21:23:17.136Z,99972.95
2019-04-07T21:25:56.024Z,99976.12
2019-04-07T21:28:39.026Z,99969.63
2019-04-07T21:31:26.154Z,99972.24
2019-04-07T21:34:30.787Z,99971.04
2019-04-07T21:37:23.039Z,99965.55
2019-04-07T21:40:10.346Z,99968.09
2019-04-07T21:43:17.953Z,99970.14
2019-04-07T21:46:07.945Z,99967.29
2019-04-07T21:48:57.975Z,99973.60
2019-04-07T21:51:49.842Z,99973.66
2019-04-07T21:54:39.119Z,99973.73
2019-04-07T21:57:30.201Z,99973.04
2019-04-07T22:00:21.574Z,99973.41
2019-04-07T22:03:08.788Z,99976.40
2019-04-07T22:05:49.016Z,99973.02
2019-04-07T22:08:27.091Z,99976.54
2019-04-07T22:10:57.364Z,99976.27
2019-04-07T22:13:28.527Z,99979.27
2019-04-07T22:16:01.690Z,99972.16
2019-04-07T22:18:29.651Z,99977.03
2019-04-07T22:20:59.243Z,99974.29
2019-04-07T22:23:30.703Z,99977.41
2019-04-07T22:26:00.058Z,99973.20
2019-04-07T22:28:30.312Z,99971.88
2019-04-07T22:31:01.501Z,99982.94
2019-04-07T22:33:32.537Z,99977.31
2019-04-07T22:36:02.343Z,99980.05
2019-04-07T22:38:31.798Z,99983.49
2019-04-07T22:41:02.703Z,99979.45
2019-04-07T22:43:32.382Z,99986.97
2019-04-07T22:46:09.349Z,99987.24
2019-04-07T22:48:33.089Z,99991.28
2019-04-07T22:51:04.256Z,99989.81
2019-04-07T22:53:35.002Z,99988.64
2019-04-07T22:56:07.811Z,99989.59
2019-04-07T22:58:36.175Z,99988.19
2019-04-07T23:01:05.698Z,99983.20
2019-04-07T23:03:35.299Z,99987.82
2019-04-07T23:06:05.192Z,99995.04
2019-04-07T23:08:35.079Z,99989.08
2019-04-07T23:11:06.431Z,99992.95
2019-04-07T23:13:37.480Z,99993.50
2019-04-07T23:16:12.819Z,99990.78
2019-04-07T23:18:38.553Z,99994.54
2019-04-07T23:21:08.100Z,99988.39
2019-04-07T23:23:38.252Z,99985.80
2019-04-07T23:26:07.959Z,99988.96
2019-04-07T23:28:37.328Z,99989.02
2019-04-07T23:31:07.517Z,99990.83
2019-04-07T23:33:38.259Z,99989.99
2019-04-07T23:36:09.450Z,99995.16
2019-04-07T23:38:39.125Z,99996.62
2019-04-07T23:41:09.555Z,99998.52
2019-04-07T23:43:39.883Z,100002.44
2019-04-07T23:46:19.827Z,99998.98
2019-04-07T23:48:41.008Z,100002.07
2019-04-07T23:51:10.528Z,100008.14
2019-04-07T23:54:08.858Z,100000.88
2019-04-07T23:56:39.517Z,100001.61
2019-04-07T23:59:10.220Z,100003.35
